sensor_id;sensor_type;location;lat;lon;timestamp;P1;durP1;ratioP1;P2;durP2;ratioP2
12681;SDS011;6405;59.208;18.216;2023-07-29T00:00:39;3.37;;;2.70;;
12681;SDS011;6405;59.208;18.216;2023-07-29T00:03:05;7.00;;;2.90;;
12681;SDS011;6405;59.208;18.216;2023-07-29T00:05:32;3.30;;;2.70;;
12681;SDS011;6405;59.208;18.216;2023-07-29T00:07:57;3.17;;;2.87;;
12681;SDS011;6405;59.208;18.216;2023-07-29T00:10:23;3.13;;;2.37;;
12681;SDS011;6405;59.208;18.216;2023-07-29T00:12:49;3.33;;;2.77;;
12681;SDS011;6405;59.208;18.216;2023-07-29T00:15:15;2.93;;;2.30;;
12681;SDS011;6405;59.208;18.216;2023-07-29T00:17:40;2.73;;;2.40;;
12681;SDS011;6405;59.208;18.216;2023-07-29T00:20:06;3.77;;;2.67;;
12681;SDS011;6405;59.208;18.216;2023-07-29T00:22:32;3.60;;;3.00;;
12681;SDS011;6405;59.208;18.216;2023-07-29T00:24:58;3.30;;;2.40;;
12681;SDS011;6405;59.208;18.216;2023-07-29T00:27:24;3.70;;;2.60;;
12681;SDS011;6405;59.208;18.216;2023-07-29T00:29:50;2.83;;;2.37;;
12681;SDS011;6405;59.208;18.216;2023-07-29T00:32:16;3.40;;;2.50;;
12681;SDS011;6405;59.208;18.216;2023-07-29T00:34:42;5.30;;;2.20;;
12681;SDS011;6405;59.208;18.216;2023-07-29T00:37:08;5.13;;;2.73;;
12681;SDS011;6405;59.208;18.216;2023-07-29T00:39:34;2.67;;;2.40;;
12681;SDS011;6405;59.208;18.216;2023-07-29T00:42:00;3.50;;;2.60;;
12681;SDS011;6405;59.208;18.216;2023-07-29T00:44:25;2.70;;;2.50;;
12681;SDS011;6405;59.208;18.216;2023-07-29T00:46:52;3.40;;;2.30;;
12681;SDS011;6405;59.208;18.216;2023-07-29T00:49:19;2.50;;;2.30;;
12681;SDS011;6405;59.208;18.216;2023-07-29T00:51:46;2.40;;;2.20;;
12681;SDS011;6405;59.208;18.216;2023-07-29T00:54:12;2.40;;;2.20;;
12681;SDS011;6405;59.208;18.216;2023-07-29T00:56:38;3.13;;;2.10;;
12681;SDS011;6405;59.208;18.216;2023-07-29T00:59:05;3.47;;;2.77;;
12681;SDS011;6405;59.208;18.216;2023-07-29T01:01:31;3.07;;;2.20;;
12681;SDS011;6405;59.208;18.216;2023-07-29T01:03:57;2.80;;;2.27;;
12681;SDS011;6405;59.208;18.216;2023-07-29T01:09:06;2.83;;;2.27;;
12681;SDS011;6405;59.208;18.216;2023-07-29T01:11:46;3.10;;;2.67;;
12681;SDS011;6405;59.208;18.216;2023-07-29T01:17:09;3.10;;;2.40;;
12681;SDS011;6405;59.208;18.216;2023-07-29T01:20:04;5.53;;;3.07;;
12681;SDS011;6405;59.208;18.216;2023-07-29T01:22:34;3.13;;;2.83;;
12681;SDS011;6405;59.208;18.216;2023-07-29T01:25:00;5.13;;;3.33;;
12681;SDS011;6405;59.208;18.216;2023-07-29T01:27:26;3.80;;;3.40;;
12681;SDS011;6405;59.208;18.216;2023-07-29T01:29:52;6.53;;;3.47;;
12681;SDS011;6405;59.208;18.216;2023-07-29T01:32:30;3.47;;;3.10;;
12681;SDS011;6405;59.208;18.216;2023-07-29T01:37:39;4.27;;;3.70;;
12681;SDS011;6405;59.208;18.216;2023-07-29T01:40:06;5.17;;;3.60;;
12681;SDS011;6405;59.208;18.216;2023-07-29T01:42:35;5.67;;;3.50;;
12681;SDS011;6405;59.208;18.216;2023-07-29T01:45:01;7.17;;;4.73;;
12681;SDS011;6405;59.208;18.216;2023-07-29T01:47:27;6.47;;;4.20;;
12681;SDS011;6405;59.208;18.216;2023-07-29T01:49:53;5.80;;;4.27;;
12681;SDS011;6405;59.208;18.216;2023-07-29T01:52:19;7.27;;;4.70;;
12681;SDS011;6405;59.208;18.216;2023-07-29T01:54:44;9.33;;;5.10;;
12681;SDS011;6405;59.208;18.216;2023-07-29T01:57:10;7.57;;;5.00;;
12681;SDS011;6405;59.208;18.216;2023-07-29T01:59:36;6.87;;;5.17;;
12681;SDS011;6405;59.208;18.216;2023-07-29T02:02:02;7.27;;;5.17;;
12681;SDS011;6405;59.208;18.216;2023-07-29T02:04:27;6.87;;;4.83;;
12681;SDS011;6405;59.208;18.216;2023-07-29T02:06:53;7.60;;;5.63;;
12681;SDS011;6405;59.208;18.216;2023-07-29T02:09:20;8.27;;;5.40;;
12681;SDS011;6405;59.208;18.216;2023-07-29T02:11:45;6.63;;;4.93;;
12681;SDS011;6405;59.208;18.216;2023-07-29T02:14:11;7.00;;;5.13;;
12681;SDS011;6405;59.208;18.216;2023-07-29T02:16:37;6.00;;;4.60;;
12681;SDS011;6405;59.208;18.216;2023-07-29T02:19:04;5.67;;;4.60;;
12681;SDS011;6405;59.208;18.216;2023-07-29T02:21:30;8.00;;;4.87;;
12681;SDS011;6405;59.208;18.216;2023-07-29T02:23:55;6.47;;;4.73;;
12681;SDS011;6405;59.208;18.216;2023-07-29T02:26:21;6.60;;;4.70;;
12681;SDS011;6405;59.208;18.216;2023-07-29T02:28:47;5.60;;;4.60;;
12681;SDS011;6405;59.208;18.216;2023-07-29T02:33:40;6.27;;;4.40;;
12681;SDS011;6405;59.208;18.216;2023-07-29T02:36:06;5.33;;;3.90;;
12681;SDS011;6405;59.208;18.216;2023-07-29T02:38:32;6.20;;;4.33;;
12681;SDS011;6405;59.208;18.216;2023-07-29T02:40:58;4.50;;;3.93;;
12681;SDS011;6405;59.208;18.216;2023-07-29T02:43:23;7.17;;;4.00;;
12681;SDS011;6405;59.208;18.216;2023-07-29T02:45:49;4.77;;;3.37;;
12681;SDS011;6405;59.208;18.216;2023-07-29T02:48:15;5.13;;;3.80;;
12681;SDS011;6405;59.208;18.216;2023-07-29T02:50:40;3.73;;;3.40;;
12681;SDS011;6405;59.208;18.216;2023-07-29T02:53:06;7.03;;;3.60;;
12681;SDS011;6405;59.208;18.216;2023-07-29T02:55:32;5.67;;;3.87;;
12681;SDS011;6405;59.208;18.216;2023-07-29T02:57:57;4.73;;;3.80;;
12681;SDS011;6405;59.208;18.216;2023-07-29T03:00:23;4.63;;;3.23;;
12681;SDS011;6405;59.208;18.216;2023-07-29T03:02:49;4.20;;;3.30;;
12681;SDS011;6405;59.208;18.216;2023-07-29T03:05:15;6.03;;;4.03;;
12681;SDS011;6405;59.208;18.216;2023-07-29T03:07:41;4.60;;;3.10;;
12681;SDS011;6405;59.208;18.216;2023-07-29T03:10:07;5.13;;;3.40;;
12681;SDS011;6405;59.208;18.216;2023-07-29T03:12:33;4.83;;;3.30;;
12681;SDS011;6405;59.208;18.216;2023-07-29T03:14:59;3.57;;;3.10;;
12681;SDS011;6405;59.208;18.216;2023-07-29T03:17:25;4.07;;;3.20;;
12681;SDS011;6405;59.208;18.216;2023-07-29T03:19:52;4.67;;;3.40;;
12681;SDS011;6405;59.208;18.216;2023-07-29T03:22:17;3.50;;;3.00;;
12681;SDS011;6405;59.208;18.216;2023-07-29T03:24:43;3.30;;;3.00;;
12681;SDS011;6405;59.208;18.216;2023-07-29T03:27:09;5.33;;;3.13;;
12681;SDS011;6405;59.208;18.216;2023-07-29T03:29:35;5.03;;;3.10;;
12681;SDS011;6405;59.208;18.216;2023-07-29T03:32:00;4.43;;;3.33;;
12681;SDS011;6405;59.208;18.216;2023-07-29T03:34:26;3.10;;;2.77;;
12681;SDS011;6405;59.208;18.216;2023-07-29T03:36:52;5.17;;;3.07;;
12681;SDS011;6405;59.208;18.216;2023-07-29T03:39:18;3.47;;;3.13;;
12681;SDS011;6405;59.208;18.216;2023-07-29T03:41:44;3.17;;;2.87;;
12681;SDS011;6405;59.208;18.216;2023-07-29T03:44:09;3.47;;;2.93;;
12681;SDS011;6405;59.208;18.216;2023-07-29T03:46:35;3.63;;;3.27;;
12681;SDS011;6405;59.208;18.216;2023-07-29T03:49:01;3.53;;;3.23;;
12681;SDS011;6405;59.208;18.216;2023-07-29T03:51:28;4.23;;;3.23;;
12681;SDS011;6405;59.208;18.216;2023-07-29T03:53:53;4.37;;;3.43;;
12681;SDS011;6405;59.208;18.216;2023-07-29T03:56:19;4.87;;;2.60;;
12681;SDS011;6405;59.208;18.216;2023-07-29T03:58:45;4.10;;;3.53;;
12681;SDS011;6405;59.208;18.216;2023-07-29T04:01:13;4.90;;;3.23;;
12681;SDS011;6405;59.208;18.216;2023-07-29T04:03:39;5.10;;;3.40;;
12681;SDS011;6405;59.208;18.216;2023-07-29T04:06:04;4.73;;;3.33;;
12681;SDS011;6405;59.208;18.216;2023-07-29T04:08:30;4.53;;;4.10;;
12681;SDS011;6405;59.208;18.216;2023-07-29T04:10:56;4.90;;;3.53;;
12681;SDS011;6405;59.208;18.216;2023-07-29T04:13:22;3.80;;;3.30;;
12681;SDS011;6405;59.208;18.216;2023-07-29T04:15:48;4.33;;;3.33;;
12681;SDS011;6405;59.208;18.216;2023-07-29T04:18:14;3.77;;;2.90;;
12681;SDS011;6405;59.208;18.216;2023-07-29T04:20:39;5.40;;;3.37;;
12681;SDS011;6405;59.208;18.216;2023-07-29T04:23:05;5.20;;;3.50;;
12681;SDS011;6405;59.208;18.216;2023-07-29T04:25:31;4.50;;;3.20;;
12681;SDS011;6405;59.208;18.216;2023-07-29T04:27:56;4.07;;;3.60;;
12681;SDS011;6405;59.208;18.216;2023-07-29T04:30:23;4.13;;;3.73;;
12681;SDS011;6405;59.208;18.216;2023-07-29T04:32:49;5.30;;;3.50;;
12681;SDS011;6405;59.208;18.216;2023-07-29T04:35:15;5.20;;;2.93;;
12681;SDS011;6405;59.208;18.216;2023-07-29T04:37:40;4.00;;;3.40;;
12681;SDS011;6405;59.208;18.216;2023-07-29T04:40:06;5.90;;;3.50;;
12681;SDS011;6405;59.208;18.216;2023-07-29T04:42:32;3.80;;;3.40;;
12681;SDS011;6405;59.208;18.216;2023-07-29T04:44:58;3.90;;;3.30;;
12681;SDS011;6405;59.208;18.216;2023-07-29T04:47:24;3.53;;;3.17;;
12681;SDS011;6405;59.208;18.216;2023-07-29T04:49:50;5.27;;;3.50;;
12681;SDS011;6405;59.208;18.216;2023-07-29T04:52:15;4.37;;;3.27;;
12681;SDS011;6405;59.208;18.216;2023-07-29T04:54:41;4.50;;;3.20;;
12681;SDS011;6405;59.208;18.216;2023-07-29T04:57:07;4.20;;;3.40;;
12681;SDS011;6405;59.208;18.216;2023-07-29T04:59:33;3.40;;;3.10;;
12681;SDS011;6405;59.208;18.216;2023-07-29T05:01:58;3.33;;;3.00;;
12681;SDS011;6405;59.208;18.216;2023-07-29T05:04:24;4.13;;;2.93;;
12681;SDS011;6405;59.208;18.216;2023-07-29T05:06:50;4.13;;;3.33;;
12681;SDS011;6405;59.208;18.216;2023-07-29T05:09:16;4.93;;;3.27;;
12681;SDS011;6405;59.208;18.216;2023-07-29T05:11:44;3.90;;;3.10;;
12681;SDS011;6405;59.208;18.216;2023-07-29T05:14:14;3.03;;;2.60;;
12681;SDS011;6405;59.208;18.216;2023-07-29T05:16:41;2.70;;;2.50;;
12681;SDS011;6405;59.208;18.216;2023-07-29T05:19:06;3.83;;;3.03;;
12681;SDS011;6405;59.208;18.216;2023-07-29T05:21:32;3.63;;;2.80;;
12681;SDS011;6405;59.208;18.216;2023-07-29T05:23:58;3.60;;;3.23;;
12681;SDS011;6405;59.208;18.216;2023-07-29T05:26:24;2.80;;;2.60;;
12681;SDS011;6405;59.208;18.216;2023-07-29T05:28:50;2.70;;;2.50;;
12681;SDS011;6405;59.208;18.216;2023-07-29T05:31:16;3.30;;;2.60;;
12681;SDS011;6405;59.208;18.216;2023-07-29T05:33:41;3.00;;;2.70;;
12681;SDS011;6405;59.208;18.216;2023-07-29T05:36:07;2.90;;;2.60;;
12681;SDS011;6405;59.208;18.216;2023-07-29T05:38:33;3.63;;;2.40;;
12681;SDS011;6405;59.208;18.216;2023-07-29T05:40:59;2.90;;;2.40;;
12681;SDS011;6405;59.208;18.216;2023-07-29T05:43:25;2.60;;;2.30;;
12681;SDS011;6405;59.208;18.216;2023-07-29T05:45:52;2.80;;;2.30;;
12681;SDS011;6405;59.208;18.216;2023-07-29T05:48:19;2.70;;;2.50;;
12681;SDS011;6405;59.208;18.216;2023-07-29T05:50:45;3.13;;;2.23;;
12681;SDS011;6405;59.208;18.216;2023-07-29T05:53:11;2.63;;;2.17;;
12681;SDS011;6405;59.208;18.216;2023-07-29T05:55:37;2.57;;;2.20;;
12681;SDS011;6405;59.208;18.216;2023-07-29T05:58:02;3.37;;;1.97;;
12681;SDS011;6405;59.208;18.216;2023-07-29T06:00:28;4.03;;;2.13;;
12681;SDS011;6405;59.208;18.216;2023-07-29T06:02:54;2.17;;;1.97;;
12681;SDS011;6405;59.208;18.216;2023-07-29T06:05:19;2.40;;;2.20;;
12681;SDS011;6405;59.208;18.216;2023-07-29T06:07:45;4.40;;;1.97;;
12681;SDS011;6405;59.208;18.216;2023-07-29T06:10:13;2.53;;;1.80;;
12681;SDS011;6405;59.208;18.216;2023-07-29T06:12:44;1.90;;;1.57;;
12681;SDS011;6405;59.208;18.216;2023-07-29T06:15:10;2.80;;;1.70;;
12681;SDS011;6405;59.208;18.216;2023-07-29T06:17:37;2.47;;;1.83;;
12681;SDS011;6405;59.208;18.216;2023-07-29T06:20:03;1.90;;;1.80;;
12681;SDS011;6405;59.208;18.216;2023-07-29T06:22:31;1.87;;;1.70;;
12681;SDS011;6405;59.208;18.216;2023-07-29T06:24:56;1.83;;;1.70;;
12681;SDS011;6405;59.208;18.216;2023-07-29T06:27:22;2.20;;;1.73;;
12681;SDS011;6405;59.208;18.216;2023-07-29T06:29:50;1.80;;;1.70;;
12681;SDS011;6405;59.208;18.216;2023-07-29T06:32:16;2.03;;;1.80;;
12681;SDS011;6405;59.208;18.216;2023-07-29T06:34:42;2.30;;;1.73;;
12681;SDS011;6405;59.208;18.216;2023-07-29T06:37:07;2.20;;;1.73;;
12681;SDS011;6405;59.208;18.216;2023-07-29T06:39:33;1.70;;;1.60;;
12681;SDS011;6405;59.208;18.216;2023-07-29T06:41:59;3.27;;;1.60;;
12681;SDS011;6405;59.208;18.216;2023-07-29T06:44:25;1.83;;;1.63;;
12681;SDS011;6405;59.208;18.216;2023-07-29T06:46:50;2.07;;;1.70;;
12681;SDS011;6405;59.208;18.216;2023-07-29T06:49:16;4.17;;;1.80;;
12681;SDS011;6405;59.208;18.216;2023-07-29T06:51:42;2.17;;;1.60;;
12681;SDS011;6405;59.208;18.216;2023-07-29T06:54:08;1.57;;;1.47;;
12681;SDS011;6405;59.208;18.216;2023-07-29T06:56:33;2.07;;;1.67;;
12681;SDS011;6405;59.208;18.216;2023-07-29T06:58:59;2.43;;;1.60;;
12681;SDS011;6405;59.208;18.216;2023-07-29T07:01:25;4.17;;;1.60;;
12681;SDS011;6405;59.208;18.216;2023-07-29T07:03:50;2.50;;;1.70;;
12681;SDS011;6405;59.208;18.216;2023-07-29T07:06:20;3.17;;;1.57;;
12681;SDS011;6405;59.208;18.216;2023-07-29T07:08:47;2.07;;;1.50;;
12681;SDS011;6405;59.208;18.216;2023-07-29T07:11:12;2.33;;;1.87;;
12681;SDS011;6405;59.208;18.216;2023-07-29T07:13:38;1.97;;;1.40;;
12681;SDS011;6405;59.208;18.216;2023-07-29T07:16:04;1.57;;;1.23;;
12681;SDS011;6405;59.208;18.216;2023-07-29T07:18:30;1.50;;;1.40;;
12681;SDS011;6405;59.208;18.216;2023-07-29T07:20:55;2.40;;;1.67;;
12681;SDS011;6405;59.208;18.216;2023-07-29T07:23:21;3.63;;;1.53;;
12681;SDS011;6405;59.208;18.216;2023-07-29T07:25:47;1.30;;;1.20;;
12681;SDS011;6405;59.208;18.216;2023-07-29T07:28:13;3.87;;;1.47;;
12681;SDS011;6405;59.208;18.216;2023-07-29T07:30:41;2.90;;;1.57;;
12681;SDS011;6405;59.208;18.216;2023-07-29T07:33:08;1.40;;;1.20;;
12681;SDS011;6405;59.208;18.216;2023-07-29T07:35:34;2.30;;;1.50;;
12681;SDS011;6405;59.208;18.216;2023-07-29T07:38:00;1.77;;;1.40;;
12681;SDS011;6405;59.208;18.216;2023-07-29T07:40:29;1.40;;;1.30;;
12681;SDS011;6405;59.208;18.216;2023-07-29T07:42:58;1.43;;;1.33;;
12681;SDS011;6405;59.208;18.216;2023-07-29T07:45:24;1.37;;;1.27;;
12681;SDS011;6405;59.208;18.216;2023-07-29T07:47:51;1.50;;;1.40;;
12681;SDS011;6405;59.208;18.216;2023-07-29T07:50:18;1.60;;;1.50;;
12681;SDS011;6405;59.208;18.216;2023-07-29T07:52:44;1.40;;;1.30;;
12681;SDS011;6405;59.208;18.216;2023-07-29T07:55:10;3.17;;;1.30;;
12681;SDS011;6405;59.208;18.216;2023-07-29T07:57:35;2.20;;;1.20;;
12681;SDS011;6405;59.208;18.216;2023-07-29T08:00:01;1.40;;;1.30;;
12681;SDS011;6405;59.208;18.216;2023-07-29T08:02:29;1.87;;;1.20;;
12681;SDS011;6405;59.208;18.216;2023-07-29T08:04:55;1.50;;;1.40;;
12681;SDS011;6405;59.208;18.216;2023-07-29T08:07:21;1.43;;;1.20;;
12681;SDS011;6405;59.208;18.216;2023-07-29T08:09:46;2.03;;;1.20;;
12681;SDS011;6405;59.208;18.216;2023-07-29T08:12:12;2.10;;;1.10;;
12681;SDS011;6405;59.208;18.216;2023-07-29T08:14:38;1.90;;;1.20;;
12681;SDS011;6405;59.208;18.216;2023-07-29T08:17:04;1.30;;;1.20;;
12681;SDS011;6405;59.208;18.216;2023-07-29T08:19:29;1.70;;;1.50;;
12681;SDS011;6405;59.208;18.216;2023-07-29T08:21:55;2.23;;;1.30;;
12681;SDS011;6405;59.208;18.216;2023-07-29T08:24:21;1.43;;;1.00;;
12681;SDS011;6405;59.208;18.216;2023-07-29T08:26:47;1.10;;;1.00;;
12681;SDS011;6405;59.208;18.216;2023-07-29T08:29:12;1.10;;;0.80;;
12681;SDS011;6405;59.208;18.216;2023-07-29T08:31:38;3.20;;;1.10;;
12681;SDS011;6405;59.208;18.216;2023-07-29T08:34:04;1.73;;;1.00;;
12681;SDS011;6405;59.208;18.216;2023-07-29T08:36:30;1.30;;;1.20;;
12681;SDS011;6405;59.208;18.216;2023-07-29T08:38:56;2.40;;;1.27;;
12681;SDS011;6405;59.208;18.216;2023-07-29T08:41:29;1.50;;;1.03;;
12681;SDS011;6405;59.208;18.216;2023-07-29T08:44:02;2.40;;;1.00;;
12681;SDS011;6405;59.208;18.216;2023-07-29T08:46:35;0.90;;;0.90;;
12681;SDS011;6405;59.208;18.216;2023-07-29T08:49:01;1.43;;;0.90;;
12681;SDS011;6405;59.208;18.216;2023-07-29T08:51:27;1.93;;;1.30;;
12681;SDS011;6405;59.208;18.216;2023-07-29T08:53:56;1.20;;;1.10;;
12681;SDS011;6405;59.208;18.216;2023-07-29T08:56:23;4.10;;;1.20;;
12681;SDS011;6405;59.208;18.216;2023-07-29T08:58:49;2.10;;;1.07;;
12681;SDS011;6405;59.208;18.216;2023-07-29T09:01:15;2.43;;;1.00;;
12681;SDS011;6405;59.208;18.216;2023-07-29T09:03:42;1.10;;;0.90;;
12681;SDS011;6405;59.208;18.216;2023-07-29T09:06:08;2.53;;;1.30;;
12681;SDS011;6405;59.208;18.216;2023-07-29T09:08:34;1.17;;;1.00;;
12681;SDS011;6405;59.208;18.216;2023-07-29T09:11:00;1.10;;;1.00;;
12681;SDS011;6405;59.208;18.216;2023-07-29T09:13:26;1.27;;;1.00;;
12681;SDS011;6405;59.208;18.216;2023-07-29T09:15:56;1.20;;;1.10;;
12681;SDS011;6405;59.208;18.216;2023-07-29T09:18:26;1.00;;;0.80;;
12681;SDS011;6405;59.208;18.216;2023-07-29T09:20:53;0.90;;;0.90;;
12681;SDS011;6405;59.208;18.216;2023-07-29T09:23:24;0.80;;;0.80;;
12681;SDS011;6405;59.208;18.216;2023-07-29T09:25:52;1.70;;;0.87;;
12681;SDS011;6405;59.208;18.216;2023-07-29T09:28:26;2.30;;;0.90;;
12681;SDS011;6405;59.208;18.216;2023-07-29T09:31:04;0.90;;;0.80;;
12681;SDS011;6405;59.208;18.216;2023-07-29T09:33:33;1.73;;;1.03;;
12681;SDS011;6405;59.208;18.216;2023-07-29T09:36:11;2.27;;;1.07;;
12681;SDS011;6405;59.208;18.216;2023-07-29T09:38:37;0.90;;;0.80;;
12681;SDS011;6405;59.208;18.216;2023-07-29T09:41:03;1.00;;;0.80;;
12681;SDS011;6405;59.208;18.216;2023-07-29T09:43:30;1.17;;;1.07;;
12681;SDS011;6405;59.208;18.216;2023-07-29T09:46:00;2.20;;;0.70;;
12681;SDS011;6405;59.208;18.216;2023-07-29T09:48:27;1.67;;;1.00;;
12681;SDS011;6405;59.208;18.216;2023-07-29T09:50:57;2.40;;;1.00;;
12681;SDS011;6405;59.208;18.216;2023-07-29T09:53:24;0.70;;;0.60;;
12681;SDS011;6405;59.208;18.216;2023-07-29T09:55:49;0.73;;;0.73;;
12681;SDS011;6405;59.208;18.216;2023-07-29T09:58:18;1.87;;;0.70;;
12681;SDS011;6405;59.208;18.216;2023-07-29T10:00:45;2.73;;;0.90;;
12681;SDS011;6405;59.208;18.216;2023-07-29T10:03:11;1.17;;;0.90;;
12681;SDS011;6405;59.208;18.216;2023-07-29T10:05:39;1.03;;;0.93;;
12681;SDS011;6405;59.208;18.216;2023-07-29T10:08:06;2.10;;;0.90;;
12681;SDS011;6405;59.208;18.216;2023-07-29T10:10:32;1.00;;;0.90;;
12681;SDS011;6405;59.208;18.216;2023-07-29T10:12:58;0.97;;;0.90;;
12681;SDS011;6405;59.208;18.216;2023-07-29T10:15:24;1.00;;;0.80;;
12681;SDS011;6405;59.208;18.216;2023-07-29T10:17:51;0.77;;;0.73;;
12681;SDS011;6405;59.208;18.216;2023-07-29T10:20:17;1.67;;;0.90;;
12681;SDS011;6405;59.208;18.216;2023-07-29T10:22:43;1.10;;;0.80;;
12681;SDS011;6405;59.208;18.216;2023-07-29T10:25:18;2.17;;;0.87;;
12681;SDS011;6405;59.208;18.216;2023-07-29T10:27:49;1.90;;;0.87;;
12681;SDS011;6405;59.208;18.216;2023-07-29T10:30:19;1.17;;;0.83;;
12681;SDS011;6405;59.208;18.216;2023-07-29T10:32:45;1.37;;;0.80;;
12681;SDS011;6405;59.208;18.216;2023-07-29T10:35:12;2.17;;;1.00;;
12681;SDS011;6405;59.208;18.216;2023-07-29T10:37:38;0.73;;;0.67;;
12681;SDS011;6405;59.208;18.216;2023-07-29T10:40:05;2.73;;;1.27;;
12681;SDS011;6405;59.208;18.216;2023-07-29T10:42:32;0.87;;;0.80;;
12681;SDS011;6405;59.208;18.216;2023-07-29T10:44:58;1.63;;;0.80;;
12681;SDS011;6405;59.208;18.216;2023-07-29T10:47:24;1.47;;;0.80;;
12681;SDS011;6405;59.208;18.216;2023-07-29T10:49:53;1.37;;;1.10;;
12681;SDS011;6405;59.208;18.216;2023-07-29T10:55:01;1.83;;;1.00;;
12681;SDS011;6405;59.208;18.216;2023-07-29T10:57:35;1.23;;;0.70;;
12681;SDS011;6405;59.208;18.216;2023-07-29T11:00:07;1.60;;;0.90;;
12681;SDS011;6405;59.208;18.216;2023-07-29T11:02:37;1.70;;;1.27;;
12681;SDS011;6405;59.208;18.216;2023-07-29T11:05:07;0.80;;;0.80;;
12681;SDS011;6405;59.208;18.216;2023-07-29T11:07:44;1.07;;;0.80;;
12681;SDS011;6405;59.208;18.216;2023-07-29T11:10:15;1.33;;;0.80;;
12681;SDS011;6405;59.208;18.216;2023-07-29T11:12:42;1.40;;;0.80;;
12681;SDS011;6405;59.208;18.216;2023-07-29T11:17:41;1.20;;;1.10;;
12681;SDS011;6405;59.208;18.216;2023-07-29T11:20:21;1.33;;;0.97;;
12681;SDS011;6405;59.208;18.216;2023-07-29T11:22:49;2.30;;;1.07;;
12681;SDS011;6405;59.208;18.216;2023-07-29T11:25:16;1.10;;;1.00;;
12681;SDS011;6405;59.208;18.216;2023-07-29T11:27:43;2.67;;;1.27;;
12681;SDS011;6405;59.208;18.216;2023-07-29T11:30:10;1.20;;;0.97;;
12681;SDS011;6405;59.208;18.216;2023-07-29T11:32:37;1.00;;;0.90;;
12681;SDS011;6405;59.208;18.216;2023-07-29T11:35:05;1.00;;;0.90;;
12681;SDS011;6405;59.208;18.216;2023-07-29T11:37:34;1.27;;;0.83;;
12681;SDS011;6405;59.208;18.216;2023-07-29T11:40:00;1.20;;;1.10;;
12681;SDS011;6405;59.208;18.216;2023-07-29T11:42:26;1.23;;;0.90;;
12681;SDS011;6405;59.208;18.216;2023-07-29T11:44:53;3.00;;;1.03;;
12681;SDS011;6405;59.208;18.216;2023-07-29T11:47:21;1.37;;;0.80;;
12681;SDS011;6405;59.208;18.216;2023-07-29T11:49:47;1.43;;;1.07;;
12681;SDS011;6405;59.208;18.216;2023-07-29T11:52:13;1.03;;;0.93;;
12681;SDS011;6405;59.208;18.216;2023-07-29T11:54:39;1.10;;;0.87;;
12681;SDS011;6405;59.208;18.216;2023-07-29T11:57:08;1.87;;;0.87;;
12681;SDS011;6405;59.208;18.216;2023-07-29T11:59:34;1.43;;;1.17;;
12681;SDS011;6405;59.208;18.216;2023-07-29T12:02:01;1.10;;;0.80;;
12681;SDS011;6405;59.208;18.216;2023-07-29T12:04:31;2.23;;;0.83;;
12681;SDS011;6405;59.208;18.216;2023-07-29T12:06:58;2.00;;;0.90;;
12681;SDS011;6405;59.208;18.216;2023-07-29T12:09:24;1.20;;;1.10;;
12681;SDS011;6405;59.208;18.216;2023-07-29T12:11:52;0.83;;;0.83;;
12681;SDS011;6405;59.208;18.216;2023-07-29T12:14:18;2.67;;;0.83;;
12681;SDS011;6405;59.208;18.216;2023-07-29T12:16:44;0.80;;;0.80;;
12681;SDS011;6405;59.208;18.216;2023-07-29T12:19:13;1.00;;;0.90;;
12681;SDS011;6405;59.208;18.216;2023-07-29T12:21:41;1.20;;;1.10;;
12681;SDS011;6405;59.208;18.216;2023-07-29T12:24:07;2.07;;;1.03;;
12681;SDS011;6405;59.208;18.216;2023-07-29T12:26:33;2.27;;;1.00;;
12681;SDS011;6405;59.208;18.216;2023-07-29T12:29:22;1.10;;;1.00;;
12681;SDS011;6405;59.208;18.216;2023-07-29T12:31:47;1.17;;;1.00;;
12681;SDS011;6405;59.208;18.216;2023-07-29T12:34:21;1.20;;;0.70;;
12681;SDS011;6405;59.208;18.216;2023-07-29T12:36:50;1.17;;;0.80;;
12681;SDS011;6405;59.208;18.216;2023-07-29T12:39:23;2.93;;;1.10;;
12681;SDS011;6405;59.208;18.216;2023-07-29T12:41:56;0.90;;;0.70;;
12681;SDS011;6405;59.208;18.216;2023-07-29T12:44:24;0.83;;;0.83;;
12681;SDS011;6405;59.208;18.216;2023-07-29T12:46:55;2.97;;;1.10;;
12681;SDS011;6405;59.208;18.216;2023-07-29T12:49:21;1.00;;;0.90;;
12681;SDS011;6405;59.208;18.216;2023-07-29T12:51:47;1.37;;;1.10;;
12681;SDS011;6405;59.208;18.216;2023-07-29T12:54:13;2.23;;;1.03;;
12681;SDS011;6405;59.208;18.216;2023-07-29T12:56:39;1.47;;;1.00;;
12681;SDS011;6405;59.208;18.216;2023-07-29T12:59:05;3.13;;;0.93;;
12681;SDS011;6405;59.208;18.216;2023-07-29T13:01:31;1.40;;;1.10;;
12681;SDS011;6405;59.208;18.216;2023-07-29T13:03:57;1.30;;;1.20;;
12681;SDS011;6405;59.208;18.216;2023-07-29T13:06:23;1.50;;;1.00;;
12681;SDS011;6405;59.208;18.216;2023-07-29T13:08:49;2.83;;;0.97;;
12681;SDS011;6405;59.208;18.216;2023-07-29T13:11:15;1.20;;;1.00;;
12681;SDS011;6405;59.208;18.216;2023-07-29T13:13:41;1.33;;;1.00;;
12681;SDS011;6405;59.208;18.216;2023-07-29T13:16:07;1.23;;;0.90;;
12681;SDS011;6405;59.208;18.216;2023-07-29T13:18:33;2.27;;;1.10;;
12681;SDS011;6405;59.208;18.216;2023-07-29T13:20:59;1.30;;;1.20;;
12681;SDS011;6405;59.208;18.216;2023-07-29T13:23:25;1.27;;;1.00;;
12681;SDS011;6405;59.208;18.216;2023-07-29T13:25:52;0.90;;;0.83;;
12681;SDS011;6405;59.208;18.216;2023-07-29T13:28:18;1.17;;;1.07;;
12681;SDS011;6405;59.208;18.216;2023-07-29T13:30:44;1.67;;;1.00;;
12681;SDS011;6405;59.208;18.216;2023-07-29T13:33:10;1.07;;;0.97;;
12681;SDS011;6405;59.208;18.216;2023-07-29T13:35:36;1.20;;;1.03;;
12681;SDS011;6405;59.208;18.216;2023-07-29T13:38:02;1.10;;;1.00;;
12681;SDS011;6405;59.208;18.216;2023-07-29T13:40:28;1.10;;;0.97;;
12681;SDS011;6405;59.208;18.216;2023-07-29T13:42:54;1.83;;;0.83;;
12681;SDS011;6405;59.208;18.216;2023-07-29T13:45:20;2.90;;;1.10;;
12681;SDS011;6405;59.208;18.216;2023-07-29T13:47:46;2.33;;;1.07;;
12681;SDS011;6405;59.208;18.216;2023-07-29T13:50:13;1.00;;;0.90;;
12681;SDS011;6405;59.208;18.216;2023-07-29T13:52:38;2.10;;;1.10;;
12681;SDS011;6405;59.208;18.216;2023-07-29T13:55:04;1.20;;;1.10;;
12681;SDS011;6405;59.208;18.216;2023-07-29T13:57:34;2.10;;;1.00;;
12681;SDS011;6405;59.208;18.216;2023-07-29T13:59:59;1.70;;;1.10;;
12681;SDS011;6405;59.208;18.216;2023-07-29T14:02:25;1.10;;;0.97;;
12681;SDS011;6405;59.208;18.216;2023-07-29T14:04:56;2.60;;;1.40;;
12681;SDS011;6405;59.208;18.216;2023-07-29T14:07:21;1.90;;;1.00;;
12681;SDS011;6405;59.208;18.216;2023-07-29T14:09:47;3.40;;;1.00;;
12681;SDS011;6405;59.208;18.216;2023-07-29T14:12:13;2.27;;;1.00;;
12681;SDS011;6405;59.208;18.216;2023-07-29T14:14:40;1.47;;;1.37;;
12681;SDS011;6405;59.208;18.216;2023-07-29T14:17:06;2.20;;;0.97;;
12681;SDS011;6405;59.208;18.216;2023-07-29T14:19:33;1.60;;;1.30;;
12681;SDS011;6405;59.208;18.216;2023-07-29T14:21:59;1.10;;;1.00;;
12681;SDS011;6405;59.208;18.216;2023-07-29T14:24:25;2.07;;;0.80;;
12681;SDS011;6405;59.208;18.216;2023-07-29T14:26:51;1.30;;;1.10;;
12681;SDS011;6405;59.208;18.216;2023-07-29T14:29:17;1.53;;;1.10;;
12681;SDS011;6405;59.208;18.216;2023-07-29T14:31:42;2.33;;;1.00;;
12681;SDS011;6405;59.208;18.216;2023-07-29T14:34:09;2.00;;;0.93;;
12681;SDS011;6405;59.208;18.216;2023-07-29T14:36:35;2.33;;;1.13;;
12681;SDS011;6405;59.208;18.216;2023-07-29T14:39:01;0.90;;;0.90;;
12681;SDS011;6405;59.208;18.216;2023-07-29T14:41:27;1.27;;;1.13;;
12681;SDS011;6405;59.208;18.216;2023-07-29T14:43:53;1.47;;;1.37;;
12681;SDS011;6405;59.208;18.216;2023-07-29T14:46:18;1.17;;;0.90;;
12681;SDS011;6405;59.208;18.216;2023-07-29T14:48:44;1.30;;;1.00;;
12681;SDS011;6405;59.208;18.216;2023-07-29T14:51:12;1.57;;;1.00;;
12681;SDS011;6405;59.208;18.216;2023-07-29T14:53:38;1.63;;;1.20;;
12681;SDS011;6405;59.208;18.216;2023-07-29T14:56:04;1.23;;;1.10;;
12681;SDS011;6405;59.208;18.216;2023-07-29T14:58:30;1.73;;;1.10;;
12681;SDS011;6405;59.208;18.216;2023-07-29T15:00:55;1.60;;;1.30;;